Time;durP1;ratioP1;P1;durP2;ratioP2;P2;SDS_P1;SDS_P2;PMS_P1;PMS_P2;Temp;Humidity;BMP_temperature;BMP_pressure;BME280_temperature;BME280_humidity;BME280_pressure;Samples;Min_cycle;Max_cycle;Signal;HPM_P1;HPM_P2
2022/09/18 00:01:25;;;;;;;;;4.50;4.50;;;;;21.89;31.52;101645.09;5098725;27;45399;-47
2022/09/18 00:03:54;;;;;;;;;3.75;3.00;;;;;21.89;31.37;101632.75;5098368;27;45490;-46
2022/09/18 00:06:24;;;;;;;;;3.00;3.00;;;;;21.88;31.50;101638.13;5098679;27;46655;-45
2022/09/18 00:08:52;;;;;;;;;5.00;4.00;;;;;21.88;31.49;101625.75;5097592;27;45735;-45
2022/09/18 00:11:20;;;;;;;;;3.50;3.50;;;;;21.87;31.50;101632.00;5098752;27;45341;-45
2022/09/18 00:13:46;;;;;;;;;4.00;4.00;;;;;21.87;31.28;101628.47;5098541;27;45605;-46
2022/09/18 00:16:13;;;;;;;;;4.25;3.75;;;;;21.87;31.55;101628.47;5098902;27;46299;-45
2022/09/18 00:18:39;;;;;;;;;3.25;2.25;;;;;21.87;31.77;101626.72;5099219;27;45382;-46
2022/09/18 00:21:09;;;;;;;;;4.25;3.00;;;;;21.88;31.34;101627.56;5098696;27;45239;-47
2022/09/18 00:23:35;;;;;;;;;3.75;3.75;;;;;21.87;31.41;101626.72;5120953;27;46180;-48
2022/09/18 00:26:02;;;;;;;;;5.00;3.50;;;;;21.86;31.41;101627.66;5120420;27;45129;-50
2022/09/18 00:28:27;;;;;;;;;3.00;3.00;;;;;21.86;31.61;101629.41;5115315;27;45334;-51
2022/09/18 00:30:52;;;;;;;;;2.50;2.00;;;;;21.86;31.60;101622.38;5098644;27;45675;-54
2022/09/18 00:33:18;;;;;;;;;3.25;3.00;;;;;21.86;31.43;101625.00;5098929;27;45326;-49
2022/09/18 00:35:44;;;;;;;;;5.50;4.00;;;;;21.85;31.66;101620.66;5098545;27;45566;-51
2022/09/18 00:38:10;;;;;;;;;1.50;1.00;;;;;21.86;31.75;101625.00;5096952;27;45723;-50
2022/09/18 00:40:35;;;;;;;;;3.00;3.00;;;;;21.86;31.53;101618.84;5098950;27;45310;-50
2022/09/18 00:43:21;;;;;;;;;2.00;2.00;;;;;21.85;31.68;101628.56;5097674;27;45365;-51
2022/09/18 00:45:56;;;;;;;;;3.50;3.50;;;;;21.86;31.76;101626.78;5102332;27;46909;-49
2022/09/18 00:48:28;;;;;;;;;4.25;3.00;;;;;21.84;31.59;101621.56;5118473;27;45391;-51
2022/09/18 00:50:53;;;;;;;;;4.75;3.00;;;;;21.85;31.49;101628.56;5115842;27;45196;-46
2022/09/18 00:53:19;;;;;;;;;4.75;3.00;;;;;21.84;31.86;101634.78;5105165;27;45496;-47
2022/09/18 00:55:45;;;;;;;;;4.00;3.00;;;;;21.84;31.59;101626.84;5098143;27;45364;-48
2022/09/18 00:58:11;;;;;;;;;2.00;2.00;;;;;21.85;31.80;101632.97;5099570;27;45391;-49
2022/09/18 01:00:37;;;;;;;;;2.00;2.00;;;;;21.85;31.93;101630.34;5100305;27;45407;-45
2022/09/18 01:03:03;;;;;;;;;4.75;3.00;;;;;21.84;31.73;101637.41;5100439;27;45559;-47
2022/09/18 01:05:28;;;;;;;;;2.00;1.00;;;;;21.83;31.92;101630.41;5120622;27;45584;-51
2022/09/18 01:08:06;;;;;;;;;3.00;3.00;;;;;21.83;32.03;101633.06;5098749;27;45470;-46
2022/09/18 01:10:54;;;;;;;;;2.25;2.25;;;;;21.84;31.91;101636.53;5097839;27;45327;-46
2022/09/18 01:13:58;;;;;;;;;5.00;3.00;;;;;21.83;31.89;101633.06;5098025;27;45611;-46
2022/09/18 01:16:32;;;;;;;;;2.50;2.50;;;;;21.83;31.75;101634.84;5097394;27;46158;-45
2022/09/18 01:19:34;;;;;;;;;4.00;3.00;;;;;21.83;31.74;101629.59;5097213;27;45231;-47
2022/09/18 01:22:30;;;;;;;;;3.00;2.00;;;;;21.82;31.66;101633.97;5094981;27;45549;-47
2022/09/18 01:25:15;;;;;;;;;3.00;3.00;;;;;21.81;31.92;101624.34;5076172;28;45506;-47
2022/09/18 01:27:40;;;;;;;;;2.75;2.75;;;;;21.81;31.97;101621.72;5077097;28;46264;-45
2022/09/18 01:30:08;;;;;;;;;5.00;2.67;;;;;21.81;31.80;101616.44;5075908;28;45377;-49
2022/09/18 01:32:54;;;;;;;;;3.00;3.00;;;;;21.80;32.01;101617.38;5077083;28;45367;-45
2022/09/18 01:35:42;;;;;;;;;3.50;2.25;;;;;21.80;32.14;101620.00;5076445;27;45391;-46
2022/09/18 01:38:14;;;;;;;;;2.00;2.00;;;;;21.81;31.73;101627.00;5087990;27;46513;-46
2022/09/18 01:40:53;;;;;;;;;2.00;2.00;;;;;21.79;31.79;101615.66;5105550;27;45759;-46
2022/09/18 01:43:20;;;;;;;;;3.00;1.00;;;;;21.80;31.93;101620.00;5101287;27;45400;-45
2022/09/18 01:45:49;;;;;;;;;3.00;2.00;;;;;21.80;32.07;101619.16;5098079;27;45380;-46
2022/09/18 01:48:24;;;;;;;;;4.25;1.75;;;;;21.80;31.96;101629.72;5097733;27;45723;-47
2022/09/18 01:51:15;;;;;;;;;4.00;2.00;;;;;21.81;31.95;101621.72;5097167;27;45756;-46
2022/09/18 01:53:49;;;;;;;;;5.75;2.00;;;;;21.80;31.75;101620.00;5097056;27;45380;-45
2022/09/18 01:56:23;;;;;;;;;2.75;2.00;;;;;21.79;32.15;101620.94;5099075;27;45310;-46
2022/09/18 01:58:52;;;;;;;;;3.00;2.00;;;;;21.78;31.94;101619.22;5098748;27;45512;-46
2022/09/18 02:01:21;;;;;;;;;2.00;2.00;;;;;21.80;32.14;101613.88;5115301;27;45164;-47
2022/09/18 02:03:53;;;;;;;;;1.00;1.00;;;;;21.77;32.27;101613.09;5116534;27;44806;-46
2022/09/18 02:06:25;;;;;;;;;2.00;2.00;;;;;21.78;32.08;101611.31;5117714;27;45324;-46
2022/09/18 02:08:53;;;;;;;;;1.00;1.00;;;;;21.78;32.11;101603.38;5112307;27;46703;-47
2022/09/18 02:11:20;;;;;;;;;2.25;1.25;;;;;21.79;32.22;101607.75;5101870;27;45329;-47
2022/09/18 02:14:04;;;;;;;;;2.50;2.25;;;;;21.77;32.09;101604.34;5099909;27;45362;-47
2022/09/18 02:16:41;;;;;;;;;2.00;2.00;;;;;21.76;31.78;101600.84;5097422;27;45224;-46
2022/09/18 02:19:30;;;;;;;;;2.00;1.25;;;;;21.77;32.02;101604.34;5096338;27;46623;-47
2022/09/18 02:22:00;;;;;;;;;1.75;1.75;;;;;21.76;32.31;101608.75;5095682;27;46290;-47
2022/09/18 02:24:31;;;;;;;;;2.25;2.00;;;;;21.76;31.79;101610.56;5108937;27;45566;-47
2022/09/18 02:26:59;;;;;;;;;3.50;2.00;;;;;21.76;31.98;101610.56;5100802;27;45172;-46
2022/09/18 02:29:24;;;;;;;;;2.00;2.00;;;;;21.74;31.70;101615.88;5096484;27;47315;-47
2022/09/18 02:31:50;;;;;;;;;2.00;2.00;;;;;21.75;32.04;101608.84;5096386;27;45276;-46
2022/09/18 02:34:18;;;;;;;;;1.00;1.00;;;;;21.74;32.16;101604.47;5097070;27;45567;-46
2022/09/18 02:36:58;;;;;;;;;1.75;1.75;;;;;21.74;32.19;101607.13;5096451;27;45533;-50
2022/09/18 02:40:11;;;;;;;;;2.25;2.25;;;;;21.74;32.02;101604.47;5096310;27;45682;-53
2022/09/18 02:42:46;;;;;;;;;1.75;1.75;;;;;21.74;31.92;101604.47;5073991;28;45851;-47
2022/09/18 02:45:38;;;;;;;;;5.00;2.75;;;;;21.73;32.23;101603.63;5096858;27;45544;-48
2022/09/18 02:48:36;;;;;;;;;1.75;1.75;;;;;21.72;32.07;101606.34;5099902;27;45438;-48
2022/09/18 02:51:29;;;;;;;;;3.00;2.00;;;;;21.72;31.88;101598.41;5098709;27;46681;-49
2022/09/18 02:54:04;;;;;;;;;1.00;1.00;;;;;21.70;31.87;101597.63;5079862;27;45812;-47
2022/09/18 02:56:41;;;;;;;;;3.50;1.00;;;;;21.70;32.31;101600.28;5081537;27;45440;-49
2022/09/18 02:59:17;;;;;;;;;1.75;1.25;;;;;21.70;32.20;101600.28;5080864;28;45355;-48
2022/09/18 03:01:44;;;;;;;;;1.75;1.50;;;;;21.69;32.09;101586.25;5080347;28;46060;-51
2022/09/18 03:04:13;;;;;;;;;2.50;2.00;;;;;21.69;31.99;101583.59;5061440;28;45253;-48
2022/09/18 03:06:38;;;;;;;;;1.00;1.00;;;;;21.70;31.87;101589.72;5086969;27;45422;-47
2022/09/18 03:09:04;;;;;;;;;1.00;1.00;;;;;21.68;31.95;101579.25;5106321;27;45501;-45
2022/09/18 03:11:29;;;;;;;;;2.25;2.00;;;;;21.69;32.14;101582.72;5121783;27;56190;-46
2022/09/18 03:13:54;;;;;;;;;2.00;2.00;;;;;21.68;31.82;101578.38;5121541;27;53548;-47
2022/09/18 03:16:19;;;;;;;;;0.50;0.50;;;;;21.68;32.12;101584.53;5101141;27;48361;-50
2022/09/18 03:18:45;;;;;;;;;2.00;2.00;;;;;21.67;32.28;101579.31;5100290;27;45500;-47
2022/09/18 03:21:10;;;;;;;;;3.75;2.00;;;;;21.67;32.19;101577.53;5098397;27;46631;-50
2022/09/18 03:23:36;;;;;;;;;1.00;1.00;;;;;21.67;32.25;101568.75;5099513;27;45258;-49
2022/09/18 03:26:01;;;;;;;;;2.00;2.00;;;;;21.67;32.09;101577.53;5098386;27;45208;-48
2022/09/18 03:28:29;;;;;;;;;1.00;1.00;;;;;21.66;31.90;101572.34;5100114;27;45830;-47
2022/09/18 03:30:55;;;;;;;;;2.00;2.00;;;;;21.65;32.66;101571.47;5098513;27;45528;-47
2022/09/18 03:33:20;;;;;;;;;1.00;1.00;;;;;21.65;32.53;101568.00;5098604;27;62924;-47
2022/09/18 03:35:45;;;;;;;;;1.25;1.25;;;;;21.65;32.02;101570.63;5098998;27;45460;-47
2022/09/18 03:38:11;;;;;;;;;1.00;1.00;;;;;21.65;32.49;101568.00;5098598;27;46997;-47
2022/09/18 03:40:36;;;;;;;;;1.00;1.00;;;;;21.65;32.36;101574.13;5098959;27;45390;-46
2022/09/18 03:43:01;;;;;;;;;1.00;1.00;;;;;21.66;32.39;101572.34;5100554;27;45370;-45
2022/09/18 03:45:27;;;;;;;;;1.00;1.00;;;;;21.62;32.24;101567.22;5101682;27;45299;-51
2022/09/18 03:47:53;;;;;;;;;1.75;1.00;;;;;21.63;32.37;101568.06;5098900;27;45475;-50
2022/09/18 03:50:18;;;;;;;;;1.50;1.00;;;;;21.63;32.62;101565.41;5097825;27;45547;-46
2022/09/18 03:52:43;;;;;;;;;2.75;2.00;;;;;21.63;32.13;101575.97;5098663;27;45370;-52
2022/09/18 03:55:09;;;;;;;;;2.75;1.25;;;;;21.62;32.42;101564.56;5108764;27;45347;-49
2022/09/18 03:57:34;;;;;;;;;1.75;1.75;;;;;21.61;32.29;101562.88;5102605;27;45431;-47
2022/09/18 04:00:00;;;;;;;;;2.25;2.00;;;;;21.62;32.29;101563.69;5097950;27;54070;-48
2022/09/18 04:02:25;;;;;;;;;1.00;1.00;;;;;21.61;32.53;101564.63;5098269;27;45856;-50
2022/09/18 04:04:52;;;;;;;;;2.00;2.00;;;;;21.60;32.10;101566.44;5098323;27;45264;-49
2022/09/18 04:07:18;;;;;;;;;1.00;1.00;;;;;21.61;32.49;101567.28;5097536;27;45511;-48
2022/09/18 04:09:43;;;;;;;;;0.00;0.00;;;;;21.60;32.41;101571.69;5098531;27;45369;-48
2022/09/18 04:12:09;;;;;;;;;1.00;1.00;;;;;21.62;32.53;101574.25;5098254;27;45239;-50
2022/09/18 04:14:34;;;;;;;;;1.00;1.00;;;;;21.62;32.29;101568.97;5098337;27;45238;-53
2022/09/18 04:17:00;;;;;;;;;1.50;1.25;;;;;21.60;32.12;101566.44;5098346;27;45218;-54
2022/09/18 04:19:25;;;;;;;;;2.00;1.25;;;;;21.60;32.49;101569.06;5098313;27;47353;-51
2022/09/18 04:21:50;;;;;;;;;2.00;0.67;;;;;21.60;32.49;101570.88;5096621;27;59604;-53
2022/09/18 04:24:16;;;;;;;;;2.00;2.00;;;;;21.59;32.42;101570.00;5098883;27;45352;-47
2022/09/18 04:26:41;;;;;;;;;1.00;1.00;;;;;21.58;32.56;101564.78;5098164;27;45377;-50
2022/09/18 04:29:06;;;;;;;;;0.67;0.00;;;;;21.59;32.51;101569.16;5097937;27;68020;-51
2022/09/18 04:31:31;;;;;;;;;1.75;1.75;;;;;21.59;32.29;101566.50;5100434;27;45327;-51
2022/09/18 04:33:57;;;;;;;;;2.00;2.00;;;;;21.58;32.67;101562.13;5118467;27;44788;-51
2022/09/18 04:36:22;;;;;;;;;1.75;1.00;;;;;21.58;32.48;101562.97;5111759;27;45384;-50
2022/09/18 04:38:48;;;;;;;;;1.00;1.00;;;;;21.57;32.72;101563.91;5098614;27;46431;-46
2022/09/18 04:41:13;;;;;;;;;2.00;2.00;;;;;21.58;32.93;101564.78;5098492;27;45345;-46
2022/09/18 04:43:38;;;;;;;;;2.00;2.00;;;;;21.58;32.49;101567.41;5098311;27;49541;-47
2022/09/18 04:46:04;;;;;;;;;1.00;1.00;;;;;21.55;32.57;101568.38;5097445;27;45638;-48
2022/09/18 04:48:29;;;;;;;;;1.00;1.00;;;;;21.56;32.36;101564.81;5103352;27;45365;-46
2022/09/18 04:50:54;;;;;;;;;2.50;2.00;;;;;21.57;32.70;101574.44;5101182;27;45428;-46
2022/09/18 04:53:20;;;;;;;;;1.00;1.00;;;;;21.55;32.68;101562.28;5101115;27;45314;-48
2022/09/18 04:55:46;;;;;;;;;3.00;1.00;;;;;21.55;32.85;101573.66;5100842;27;45398;-51
2022/09/18 04:58:13;;;;;;;;;3.25;2.00;;;;;21.55;32.64;101571.03;5102012;27;46595;-48
2022/09/18 05:00:39;;;;;;;;;2.25;1.00;;;;;21.55;32.71;101580.72;5100602;27;45715;-47
2022/09/18 05:03:05;;;;;;;;;2.50;2.00;;;;;21.52;32.52;101571.19;5111628;27;45525;-49
2022/09/18 05:05:30;;;;;;;;;2.00;2.00;;;;;21.54;32.66;101582.53;5114279;27;44942;-55
2022/09/18 05:08:02;;;;;;;;;2.50;2.00;;;;;21.53;32.73;101575.53;5097476;27;46892;-53
2022/09/18 05:10:28;;;;;;;;;1.00;1.00;;;;;21.53;32.76;101575.53;5098970;27;45777;-54
2022/09/18 05:12:53;;;;;;;;;2.25;0.75;;;;;21.54;32.40;101582.53;5102328;27;45258;-52
2022/09/18 05:15:20;;;;;;;;;1.50;1.50;;;;;21.53;32.54;101583.44;5103326;27;45369;-52
2022/09/18 05:17:46;;;;;;;;;1.00;1.00;;;;;21.53;33.16;101577.31;5109786;27;48353;-52
2022/09/18 05:20:11;;;;;;;;;3.50;1.75;;;;;21.53;32.82;101580.81;5116981;27;45385;-51
2022/09/18 05:22:37;;;;;;;;;2.00;1.00;;;;;21.53;32.87;101579.94;5118838;27;45354;-49
2022/09/18 05:25:03;;;;;;;;;4.50;2.00;;;;;21.52;32.69;101579.09;5118056;27;44853;-50
2022/09/18 05:27:29;;;;;;;;;3.50;2.00;;;;;21.52;32.90;101578.22;5118774;27;45368;-54
2022/09/18 05:29:54;;;;;;;;;2.00;2.00;;;;;21.52;32.73;101581.75;5120982;27;44772;-51
2022/09/18 05:32:19;;;;;;;;;1.00;1.00;;;;;21.50;32.67;101580.97;5121495;27;45149;-48
2022/09/18 05:34:45;;;;;;;;;2.00;1.25;;;;;21.51;32.94;101577.41;5115096;27;44904;-49
2022/09/18 05:37:12;;;;;;;;;1.00;1.00;;;;;21.50;32.90;101575.69;5120399;27;45475;-51
2022/09/18 05:39:37;;;;;;;;;2.00;2.00;;;;;21.50;32.78;101583.59;5119970;27;45148;-49
2022/09/18 05:42:03;;;;;;;;;1.00;1.00;;;;;21.50;32.75;101588.88;5120811;27;44596;-48
2022/09/18 05:44:28;;;;;;;;;1.00;1.00;;;;;21.50;32.75;101580.97;5118260;27;45143;-52
2022/09/18 05:46:53;;;;;;;;;1.75;1.75;;;;;21.50;33.12;101583.59;5110382;27;45554;-50
2022/09/18 05:49:19;;;;;;;;;1.50;1.50;;;;;21.49;32.90;101589.78;5101276;27;47200;-46
2022/09/18 05:51:45;;;;;;;;;2.00;2.00;;;;;21.48;33.18;101585.44;5097537;27;50646;-48
2022/09/18 05:54:10;;;;;;;;;1.00;1.00;;;;;21.47;33.24;101586.38;5097206;27;45314;-48
2022/09/18 05:56:35;;;;;;;;;2.25;1.50;;;;;21.49;33.37;101584.53;5096795;27;45625;-50
2022/09/18 05:59:01;;;;;;;;;1.00;1.00;;;;;21.49;32.73;101583.69;5095887;27;52066;-49
2022/09/18 06:01:26;;;;;;;;;1.00;1.00;;;;;21.49;33.21;101589.78;5096701;27;45410;-49
2022/09/18 06:03:51;;;;;;;;;1.00;1.00;;;;;21.47;32.92;101592.50;5095351;27;51285;-47
2022/09/18 06:06:17;;;;;;;;;1.00;1.00;;;;;21.47;33.12;101586.38;5097084;27;46373;-51
2022/09/18 06:08:42;;;;;;;;;2.75;2.00;;;;;21.46;33.35;101589.94;5098233;27;45385;-47
2022/09/18 06:11:07;;;;;;;;;3.00;1.75;;;;;21.45;33.25;101588.22;5102442;27;45450;-47
2022/09/18 06:13:33;;;;;;;;;1.75;1.50;;;;;21.45;33.13;101591.72;5098488;27;45472;-47
2022/09/18 06:15:58;;;;;;;;;2.00;1.00;;;;;21.46;33.38;101595.19;5096558;27;51536;-46
2022/09/18 06:18:24;;;;;;;;;1.75;1.25;;;;;21.45;33.25;101598.75;5096227;27;45471;-47
2022/09/18 06:20:53;;;;;;;;;3.00;2.00;;;;;21.45;32.93;101604.03;5099665;27;45387;-47
2022/09/18 06:23:20;;;;;;;;;1.50;1.00;;;;;21.43;33.22;101600.66;5117570;27;45519;-49
2022/09/18 06:25:45;;;;;;;;;2.00;1.00;;;;;21.44;33.29;101605.00;5101224;27;46404;-47
2022/09/18 06:28:11;;;;;;;;;1.25;1.25;;;;;21.43;33.40;101611.19;5099954;27;45193;-47
2022/09/18 06:30:36;;;;;;;;;1.50;1.25;;;;;21.44;33.10;101612.91;5099854;27;45391;-47
2022/09/18 06:33:04;;;;;;;;;1.50;1.50;;;;;21.43;32.90;101606.75;5099745;27;45438;-47
2022/09/18 06:35:32;;;;;;;;;3.75;2.00;;;;;21.44;33.27;101612.91;5099838;27;46494;-48
2022/09/18 06:38:01;;;;;;;;;1.00;1.00;;;;;21.44;33.34;101612.91;5106598;27;45306;-49
2022/09/18 06:40:27;;;;;;;;;1.25;0.75;;;;;21.45;33.07;101604.03;5108108;27;45330;-47
2022/09/18 06:42:57;;;;;;;;;1.25;1.25;;;;;21.45;33.44;101606.69;5104633;27;45467;-46
2022/09/18 06:45:24;;;;;;;;;1.00;1.00;;;;;21.44;33.16;101612.91;5102126;27;45740;-48
2022/09/18 06:47:53;;;;;;;;;1.00;1.00;;;;;21.43;33.35;101614.69;5100026;27;45807;-49
2022/09/18 06:50:21;;;;;;;;;1.75;1.75;;;;;21.45;33.48;101606.69;5098866;27;45483;-48
2022/09/18 06:52:47;;;;;;;;;1.00;0.00;;;;;21.45;33.73;101606.69;5100241;27;45626;-52
2022/09/18 06:55:12;;;;;;;;;1.00;1.00;;;;;21.44;33.41;101602.34;5099550;27;46473;-51
2022/09/18 06:57:38;;;;;;;;;3.00;1.00;;;;;21.44;33.44;101599.72;5100487;27;45380;-48
2022/09/18 07:00:03;;;;;;;;;1.75;1.75;;;;;21.45;33.34;101598.75;5118211;27;45951;-50
2022/09/18 07:02:29;;;;;;;;;2.00;2.00;;;;;21.44;33.07;101597.09;5103685;27;45559;-47
2022/09/18 07:04:54;;;;;;;;;2.00;2.00;;;;;21.42;33.17;101599.78;5101372;27;46385;-46
2022/09/18 07:07:19;;;;;;;;;1.00;1.00;;;;;21.45;33.37;101604.03;5105636;27;45357;-50
2022/09/18 07:09:45;;;;;;;;;3.00;1.25;;;;;21.45;33.14;101598.75;5101702;27;45576;-48
2022/09/18 07:12:10;;;;;;;;;3.00;1.33;;;;;21.44;33.54;101600.56;5100692;27;54789;-48
2022/09/18 07:14:35;;;;;;;;;2.25;1.50;;;;;21.45;33.38;101604.91;5104060;27;46336;-47
2022/09/18 07:17:01;;;;;;;;;2.00;1.00;;;;;21.42;33.34;101597.13;5122178;27;45408;-49
2022/09/18 07:19:26;;;;;;;;;1.50;1.50;;;;;21.44;33.74;101599.72;5105523;27;45382;-46
2022/09/18 07:21:52;;;;;;;;;2.75;2.25;;;;;21.44;33.51;101610.28;5110167;27;45395;-47
2022/09/18 07:24:17;;;;;;;;;1.50;1.50;;;;;21.44;33.29;101607.63;5113532;27;45615;-49
2022/09/18 07:26:42;;;;;;;;;1.00;1.00;;;;;21.46;33.86;101605.75;5108585;27;65407;-47
2022/09/18 07:29:08;;;;;;;;;1.00;1.00;;;;;21.46;33.52;101608.38;5115704;27;45379;-49
2022/09/18 07:31:34;;;;;;;;;2.00;2.00;;;;;21.45;33.53;101604.91;5113081;27;44940;-50
2022/09/18 07:34:00;;;;;;;;;5.00;2.00;;;;;21.45;33.81;101609.31;5104487;27;45726;-48
2022/09/18 07:36:26;;;;;;;;;2.75;2.75;;;;;21.45;33.76;101604.91;5106096;27;45366;-45
2022/09/18 07:38:52;;;;;;;;;1.00;1.00;;;;;21.45;33.47;101598.75;5103082;27;45301;-54
2022/09/18 07:41:18;;;;;;;;;0.00;0.00;;;;;21.46;33.57;101605.75;5105411;27;45306;-48
2022/09/18 07:43:44;;;;;;;;;2.50;2.00;;;;;21.46;33.87;101606.63;5111667;27;47560;-46
2022/09/18 07:46:09;;;;;;;;;1.75;1.75;;;;;21.49;33.53;101610.06;5100350;27;45349;-46
2022/09/18 07:48:35;;;;;;;;;3.50;2.50;;;;;21.48;33.85;101619.72;5098519;27;45375;-48
2022/09/18 07:51:02;;;;;;;;;1.00;1.00;;;;;21.47;33.58;101608.34;5099187;27;45335;-45
2022/09/18 07:53:28;;;;;;;;;3.00;1.75;;;;;21.47;33.93;101613.63;5098367;27;46370;-46
2022/09/18 07:55:56;;;;;;;;;3.00;1.75;;;;;21.48;33.83;101611.81;5098164;27;45480;-49
2022/09/18 07:58:22;;;;;;;;;1.00;1.00;;;;;21.50;33.76;101615.25;5100414;27;45476;-48
2022/09/18 08:00:48;;;;;;;;;1.00;1.00;;;;;21.50;33.92;101617.03;5101268;27;45489;-48
2022/09/18 08:03:13;;;;;;;;;2.00;2.00;;;;;21.49;33.79;101613.53;5098180;27;47439;-48
2022/09/18 08:05:40;;;;;;;;;1.25;1.25;;;;;21.51;33.97;101614.31;5098713;27;45290;-48
2022/09/18 08:08:09;;;;;;;;;3.00;2.00;;;;;21.51;34.14;101616.97;5098264;27;45393;-46
2022/09/18 08:10:35;;;;;;;;;1.25;1.25;;;;;21.51;33.81;101624.88;5098797;27;45334;-52
2022/09/18 08:13:01;;;;;;;;;1.25;1.00;;;;;21.51;33.87;101614.31;5098746;27;47079;-50
2022/09/18 08:15:28;;;;;;;;;2.00;2.00;;;;;21.51;33.98;101613.44;5098702;27;45817;-49
2022/09/18 08:17:53;;;;;;;;;1.00;1.00;;;;;21.52;33.96;101621.31;5104006;27;45374;-46
2022/09/18 08:20:19;;;;;;;;;3.00;2.00;;;;;21.54;34.10;101618.59;5103298;27;45453;-47
2022/09/18 08:22:45;;;;;;;;;2.25;1.00;;;;;21.54;33.99;101622.09;5100169;27;45214;-47
2022/09/18 08:25:11;;;;;;;;;1.00;0.75;;;;;21.54;33.99;101618.59;5101866;27;45704;-49
2022/09/18 08:27:40;;;;;;;;;1.00;1.00;;;;;21.55;34.40;101617.66;5102619;27;45354;-48
2022/09/18 08:30:08;;;;;;;;;0.75;0.00;;;;;21.55;33.96;101622.94;5098833;27;45595;-46
2022/09/18 08:32:34;;;;;;;;;1.00;1.00;;;;;21.55;34.20;101626.41;5097462;27;46356;-46
2022/09/18 08:35:00;;;;;;;;;1.25;1.25;;;;;21.55;34.08;101618.50;5097660;27;45425;-48
2022/09/18 08:37:27;;;;;;;;;1.00;1.00;;;;;21.56;34.53;101614.94;5097887;27;45337;-49
2022/09/18 08:39:52;;;;;;;;;2.00;1.25;;;;;21.57;34.21;101614.00;5096389;27;45384;-46
2022/09/18 08:42:45;;;;;;;;;2.00;0.00;;;;;21.57;34.00;101624.56;5096017;27;47159;-47
2022/09/18 08:45:16;;;;;;;;;2.25;1.00;;;;;21.57;34.25;101627.19;5097582;27;45723;-47
2022/09/18 08:47:53;;;;;;;;;1.25;1.25;;;;;21.58;34.34;101626.28;5096916;27;45333;-46
2022/09/18 08:50:31;;;;;;;;;1.00;1.00;;;;;21.58;34.59;101623.63;5097827;27;45199;-46
2022/09/18 08:53:03;;;;;;;;;2.00;2.00;;;;;21.59;34.47;101625.38;5097253;27;45460;-49
2022/09/18 08:55:35;;;;;;;;;2.00;2.00;;;;;21.60;34.51;101620.97;5097459;27;45851;-46
2022/09/18 08:58:13;;;;;;;;;1.00;0.00;;;;;21.60;34.60;101623.63;5097504;27;45314;-48
2022/09/18 09:00:44;;;;;;;;;1.75;1.00;;;;;21.60;34.31;101629.72;5108260;27;45342;-46
2022/09/18 09:03:42;;;;;;;;;1.00;1.00;;;;;21.60;34.52;101621.81;5109450;27;45523;-50
2022/09/18 09:06:36;;;;;;;;;1.50;1.00;;;;;21.62;34.15;101627.00;5084570;27;45659;-48
2022/09/18 09:09:39;;;;;;;;;1.75;1.75;;;;;21.62;34.61;101622.63;5088517;27;45343;-46
2022/09/18 09:12:25;;;;;;;;;1.00;1.00;;;;;21.62;34.54;101622.63;5097266;27;45483;-46
2022/09/18 09:15:09;;;;;;;;;1.75;1.75;;;;;21.62;34.57;101621.75;5097455;27;45657;-46
2022/09/18 09:18:11;;;;;;;;;1.00;1.00;;;;;21.64;34.54;101624.31;5100261;27;45374;-49
2022/09/18 09:20:53;;;;;;;;;1.50;1.00;;;;;21.65;34.55;101611.06;5098716;27;45750;-45
2022/09/18 09:23:28;;;;;;;;;1.50;1.50;;;;;21.66;34.62;101612.75;5100116;27;45491;-46
2022/09/18 09:26:12;;;;;;;;;1.00;1.00;;;;;21.67;34.21;101603.06;5098684;27;46606;-45
2022/09/18 09:29:02;;;;;;;;;1.75;1.00;;;;;21.67;34.20;101605.69;5098495;27;45460;-46
2022/09/18 09:31:42;;;;;;;;;1.25;1.25;;;;;21.68;34.28;101599.50;5098681;27;45353;-46
2022/09/18 09:34:20;;;;;;;;;1.00;1.00;;;;;21.69;34.23;101606.47;5078147;27;45242;-45
2022/09/18 09:36:53;;;;;;;;;2.00;2.00;;;;;21.68;34.39;101600.34;5083746;27;46296;-49
2022/09/18 09:39:31;;;;;;;;;3.00;1.00;;;;;21.70;34.18;101606.41;5080911;28;45714;-47
2022/09/18 09:42:02;;;;;;;;;1.00;1.00;;;;;21.69;34.43;101615.25;5077043;28;45410;-47
2022/09/18 09:44:38;;;;;;;;;3.00;1.00;;;;;21.71;34.38;101604.63;5076976;28;45505;-46
2022/09/18 09:47:23;;;;;;;;;4.00;1.00;;;;;21.71;34.28;101608.13;5082999;27;47420;-46
2022/09/18 09:49:54;;;;;;;;;1.00;1.00;;;;;21.71;34.39;101609.91;5097386;27;45173;-47
2022/09/18 09:52:23;;;;;;;;;1.00;1.00;;;;;21.71;34.06;101608.13;5095777;27;45443;-46
2022/09/18 09:55:18;;;;;;;;;1.00;1.00;;;;;21.72;33.81;101606.34;5097413;27;45929;-47
2022/09/18 09:58:08;;;;;;;;;1.00;1.00;;;;;21.73;34.05;101610.69;5096440;27;46259;-45
2022/09/18 10:00:42;;;;;;;;;2.50;1.25;;;;;21.73;34.12;101600.97;5096914;27;45889;-46
2022/09/18 10:03:23;;;;;;;;;0.25;0.25;;;;;21.74;34.24;101593.94;5096866;27;45420;-46
2022/09/18 10:06:12;;;;;;;;;1.00;1.00;;;;;21.74;34.10;101593.94;5116377;27;45428;-48
2022/09/18 10:09:01;;;;;;;;;3.00;1.00;;;;;21.74;33.86;101600.03;5110140;27;46208;-45
2022/09/18 10:11:27;;;;;;;;;1.00;0.75;;;;;21.74;33.88;101592.13;5100560;27;45757;-45
2022/09/18 10:14:01;;;;;;;;;2.00;1.00;;;;;21.75;34.06;101603.56;5097645;27;45317;-48
2022/09/18 10:16:40;;;;;;;;;2.00;1.00;;;;;21.75;33.75;101604.41;5097762;27;45504;-45
2022/09/18 10:19:17;;;;;;;;;1.00;1.00;;;;;21.75;33.50;101596.47;5096482;27;45463;-47
2022/09/18 10:21:44;;;;;;;;;0.00;0.00;;;;;21.76;33.66;101586.81;5115101;27;45804;-47
2022/09/18 10:24:43;;;;;;;;;0.75;0.75;;;;;21.76;33.67;101589.44;5099136;27;45385;-47
2022/09/18 10:27:12;;;;;;;;;0.00;0.00;;;;;21.75;33.64;101579.81;5099494;27;45338;-46
2022/09/18 10:29:38;;;;;;;;;1.00;1.00;;;;;21.76;33.66;101581.53;5096699;27;45759;-46
2022/09/18 10:32:03;;;;;;;;;1.00;1.00;;;;;21.76;33.66;101571.81;5095596;27;45317;-51
2022/09/18 10:34:40;;;;;;;;;1.00;1.00;;;;;21.77;33.31;101577.97;5096492;27;45442;-47
2022/09/18 10:37:28;;;;;;;;;1.00;1.00;;;;;21.76;33.70;101568.34;5096272;27;45495;-49
2022/09/18 10:40:01;;;;;;;;;2.50;1.25;;;;;21.77;33.66;101567.41;5101747;27;47311;-46
2022/09/18 10:42:29;;;;;;;;;0.00;0.00;;;;;21.77;33.57;101567.41;5085712;27;45270;-47
2022/09/18 10:44:58;;;;;;;;;0.00;0.00;;;;;21.76;34.12;101563.06;5097300;27;45254;-47
2022/09/18 10:47:27;;;;;;;;;2.00;0.75;;;;;21.76;33.33;101566.53;5103422;27;45515;-48
2022/09/18 10:49:56;;;;;;;;;2.00;1.75;;;;;21.77;33.39;101565.59;5096344;27;46395;-47
2022/09/18 10:52:27;;;;;;;;;1.00;1.00;;;;;21.77;33.39;101565.59;5102536;27;45826;-46
2022/09/18 10:55:08;;;;;;;;;1.00;1.00;;;;;21.78;33.64;101571.72;5111444;27;45230;-47
2022/09/18 10:57:37;;;;;;;;;1.00;1.00;;;;;21.78;33.52;101569.97;5102580;27;44864;-45
2022/09/18 11:00:32;;;;;;;;;1.00;1.00;;;;;21.79;33.35;101570.78;5101745;27;45295;-45
2022/09/18 11:03:22;;;;;;;;;0.75;0.75;;;;;21.80;33.36;101571.66;5098567;27;45371;-45
2022/09/18 11:05:57;;;;;;;;;3.25;1.25;;;;;21.78;33.31;101564.69;5110064;27;45248;-49
2022/09/18 11:08:32;;;;;;;;;0.00;0.00;;;;;21.80;33.49;101567.22;5121368;27;44792;-52
2022/09/18 11:11:07;;;;;;;;;1.00;1.00;;;;;21.80;33.46;101569.03;5119235;27;45699;-52
2022/09/18 11:13:42;;;;;;;;;1.00;1.00;;;;;21.80;33.58;101561.94;5099572;27;45841;-49
2022/09/18 11:16:07;;;;;;;;;1.50;1.00;;;;;21.80;33.70;101566.38;5098609;27;45385;-50
2022/09/18 11:18:33;;;;;;;;;0.00;0.00;;;;;21.82;33.32;101553.97;5099918;27;45499;-51
2022/09/18 11:21:03;;;;;;;;;1.00;1.00;;;;;21.82;33.88;101560.09;5099365;27;46356;-48
2022/09/18 11:23:36;;;;;;;;;2.00;1.50;;;;;21.83;33.33;101561.81;5099875;27;45628;-45
2022/09/18 11:26:14;;;;;;;;;3.00;1.50;;;;;21.83;33.37;101567.09;5099094;27;45219;-47
2022/09/18 11:28:39;;;;;;;;;1.00;1.00;;;;;21.82;33.31;101559.25;5099449;27;45376;-47
2022/09/18 11:31:15;;;;;;;;;3.00;1.25;;;;;21.82;33.50;101562.75;5097507;27;46198;-45
2022/09/18 11:33:47;;;;;;;;;1.00;1.00;;;;;21.83;33.67;101555.69;5098792;27;45406;-46
2022/09/18 11:36:21;;;;;;;;;0.00;0.00;;;;;21.83;33.58;101567.09;5099328;27;45226;-47
2022/09/18 11:38:47;;;;;;;;;1.00;1.00;;;;;21.83;33.58;101561.81;5100141;27;45330;-45
2022/09/18 11:41:21;;;;;;;;;1.00;1.00;;;;;21.83;33.48;101550.41;5119032;27;47219;-47